Time;durP1;ratioP1;P1;durP2;ratioP2;P2;SDS_P1;SDS_P2;PMS_P1;PMS_P2;Temp;Humidity;BMP_temperature;BMP_pressure;BME280_temperature;BME280_humidity;BME280_pressure;Samples;Min_cycle;Max_cycle;Signal;HPM_P1;HPM_P2
2021/05/25 00:00:27;;;;;;;2.30;1.60;;;18.10;80.90;;;;;;5053522;28;20528;-50
2021/05/25 00:02:55;;;;;;;3.50;1.47;;;18.40;81.90;;;;;;5053775;28;20519;-50
2021/05/25 00:05:24;;;;;;;2.03;1.40;;;18.50;82.60;;;;;;5053800;28;20505;-50
2021/05/25 00:07:52;;;;;;;1.90;1.73;;;18.40;83.00;;;;;;5052447;28;20463;-50
2021/05/25 00:10:18;;;;;;;4.37;1.77;;;18.30;83.50;;;;;;5053223;28;20434;-50
2021/05/25 00:12:45;;;;;;;5.17;1.43;;;18.60;84.90;;;;;;5053587;28;20528;-50
2021/05/25 00:15:14;;;;;;;2.30;1.77;;;18.30;83.90;;;;;;5035358;28;20484;-50
2021/05/25 00:17:40;;;;;;;2.70;1.70;;;18.30;84.20;;;;;;5053353;28;20574;-50
2021/05/25 00:20:09;;;;;;;4.37;1.70;;;18.20;84.60;;;;;;5053050;28;20941;-50
2021/05/25 00:22:38;;;;;;;5.40;1.67;;;18.30;84.50;;;;;;5053199;28;20443;-50
2021/05/25 00:25:06;;;;;;;2.40;1.50;;;18.30;84.50;;;;;;5053252;28;20459;-50
2021/05/25 00:27:33;;;;;;;2.63;1.20;;;18.20;84.60;;;;;;5053258;28;20517;-50
2021/05/25 00:30:00;;;;;;;2.80;1.30;;;18.10;84.00;;;;;;5034622;28;20462;-50
2021/05/25 00:32:26;;;;;;;3.37;1.23;;;17.90;83.00;;;;;;5053124;28;20437;-50
2021/05/25 00:34:52;;;;;;;2.50;1.47;;;18.10;82.80;;;;;;5052838;28;20838;-50
2021/05/25 00:37:18;;;;;;;2.90;1.73;;;18.00;82.10;;;;;;5052965;28;20913;-50
2021/05/25 00:39:44;;;;;;;6.23;1.63;;;18.00;81.60;;;;;;5052772;28;20484;-50
2021/05/25 00:42:11;;;;;;;3.10;1.07;;;18.00;81.20;;;;;;5053007;28;20997;-50
2021/05/25 00:44:37;;;;;;;2.63;1.57;;;17.70;80.60;;;;;;5052907;28;20914;-49
2021/05/25 00:47:04;;;;;;;3.80;1.60;;;17.50;80.50;;;;;;5052886;28;20945;-50
2021/05/25 00:49:30;;;;;;;1.70;0.90;;;17.90;81.40;;;;;;5052486;28;20454;-50
2021/05/25 00:51:56;;;;;;;3.83;1.13;;;17.50;81.70;;;;;;5034926;28;20532;-50
2021/05/25 00:54:23;;;;;;;3.30;1.27;;;17.40;82.30;;;;;;5052765;28;20483;-50
2021/05/25 00:56:49;;;;;;;2.13;1.23;;;17.40;83.40;;;;;;5052695;28;20430;-50
2021/05/25 00:59:16;;;;;;;5.30;1.40;;;17.30;84.70;;;;;;5052127;28;20463;-50
2021/05/25 01:01:42;;;;;;;2.50;0.90;;;17.00;84.80;;;;;;5052576;28;20854;-50
2021/05/25 01:04:09;;;;;;;2.00;1.20;;;17.30;85.50;;;;;;5052508;28;20443;-50
2021/05/25 01:06:35;;;;;;;2.23;1.10;;;17.30;87.30;;;;;;5052582;28;20432;-50
2021/05/25 01:09:01;;;;;;;2.03;1.30;;;17.20;88.00;;;;;;5052123;28;20991;-50
2021/05/25 01:11:29;;;;;;;6.00;1.70;;;17.40;88.90;;;;;;5052625;28;20431;-50
2021/05/25 01:13:57;;;;;;;2.23;1.00;;;16.80;89.30;;;;;;5052270;28;20482;-50
2021/05/25 01:16:27;;;;;;;2.20;1.30;;;17.10;90.40;;;;;;5052335;28;20439;-50
2021/05/25 01:18:53;;;;;;;3.93;1.10;;;17.10;91.00;;;;;;5051609;28;20512;-50
2021/05/25 01:21:21;;;;;;;3.60;1.50;;;16.70;91.10;;;;;;5052291;28;20441;-50
2021/05/25 01:23:48;;;;;;;2.10;1.20;;;17.20;92.10;;;;;;5052177;28;20992;-50
2021/05/25 01:26:16;;;;;;;2.73;1.50;;;17.20;92.50;;;;;;5052217;28;20436;-50
2021/05/25 01:28:43;;;;;;;6.10;1.90;;;16.90;92.70;;;;;;5051634;28;21004;-51
2021/05/25 01:31:09;;;;;;;1.93;1.30;;;17.00;93.20;;;;;;5051920;28;20431;-50
2021/05/25 01:33:37;;;;;;;2.50;1.20;;;16.80;93.50;;;;;;5051991;28;20440;-50
2021/05/25 01:36:04;;;;;;;2.70;1.47;;;16.90;93.90;;;;;;5052048;28;20470;-50
2021/05/25 01:38:31;;;;;;;3.37;1.30;;;17.10;94.50;;;;;;5051598;28;20458;-50
2021/05/25 01:40:58;;;;;;;3.10;1.30;;;16.80;94.60;;;;;;5051856;28;20550;-50
2021/05/25 01:43:25;;;;;;;3.63;1.67;;;16.50;94.70;;;;;;5051910;28;20527;-50
2021/05/25 01:45:52;;;;;;;4.13;1.50;;;16.90;95.40;;;;;;5051731;28;20431;-50
2021/05/25 01:48:18;;;;;;;3.93;1.27;;;16.90;95.80;;;;;;5051352;28;20541;-50
2021/05/25 01:50:45;;;;;;;2.90;1.53;;;16.70;96.00;;;;;;5051553;28;20431;-50
2021/05/25 01:53:13;;;;;;;2.37;1.43;;;16.50;96.10;;;;;;5051691;28;20496;-50
2021/05/25 01:55:41;;;;;;;1.90;1.37;;;16.50;96.40;;;;;;5051481;28;20562;-50
2021/05/25 01:58:09;;;;;;;4.23;1.80;;;17.00;97.10;;;;;;5051117;28;20457;-50
2021/05/25 02:00:37;;;;;;;5.33;1.80;;;16.60;97.50;;;;;;5051788;28;20434;-50
2021/05/25 02:03:04;;;;;;;3.23;1.50;;;16.80;97.80;;;;;;5051773;28;20484;-50
2021/05/25 02:05:30;;;;;;;2.37;1.50;;;16.50;97.90;;;;;;5051426;28;20426;-50
2021/05/25 02:07:57;;;;;;;3.73;1.80;;;17.00;98.70;;;;;;5051459;28;20474;-49
2021/05/25 02:10:29;;;;;;;3.43;1.73;;;16.50;98.70;;;;;;5051277;28;20488;-50
2021/05/25 02:12:59;;;;;;;2.10;1.67;;;16.30;99.10;;;;;;5051172;28;20954;-50
2021/05/25 02:15:27;;;;;;;2.43;1.27;;;16.60;99.60;;;;;;5051353;28;20978;-50
2021/05/25 02:17:54;;;;;;;4.67;1.50;;;16.00;99.60;;;;;;5051713;28;20467;-50
2021/05/25 02:20:20;;;;;;;4.43;1.57;;;16.40;99.80;;;;;;5033083;28;20526;-49
2021/05/25 02:22:46;;;;;;;2.63;1.57;;;16.60;99.90;;;;;;5051377;28;20518;-50
2021/05/25 02:25:13;;;;;;;4.13;1.60;;;16.50;99.90;;;;;;5051191;28;20459;-49
2021/05/25 02:27:39;;;;;;;3.90;1.83;;;16.60;99.90;;;;;;5050934;28;20459;-50
2021/05/25 02:30:07;;;;;;;3.23;1.63;;;16.80;99.90;;;;;;5050172;28;20601;-49
2021/05/25 02:32:34;;;;;;;3.67;1.60;;;16.40;99.90;;;;;;5051039;28;20433;-50
2021/05/25 02:35:00;;;;;;;2.97;1.53;;;16.40;99.90;;;;;;5050998;28;21017;-50
2021/05/25 02:37:26;;;;;;;3.33;1.40;;;16.40;99.90;;;;;;5050659;28;20660;-49
2021/05/25 02:39:52;;;;;;;5.47;1.97;;;16.30;99.90;;;;;;5049501;28;20435;-50
2021/05/25 02:42:19;;;;;;;2.90;1.33;;;16.50;99.90;;;;;;5050579;28;20592;-50
2021/05/25 02:44:45;;;;;;;2.70;1.63;;;16.40;99.90;;;;;;5051013;28;20435;-49
2021/05/25 02:47:11;;;;;;;4.23;1.77;;;16.40;99.90;;;;;;5050796;28;20437;-49
2021/05/25 02:49:38;;;;;;;2.73;1.50;;;16.40;99.90;;;;;;5050541;28;20784;-50
2021/05/25 02:52:04;;;;;;;2.80;1.53;;;16.40;99.90;;;;;;5050859;28;20436;-50
2021/05/25 02:54:30;;;;;;;4.27;2.07;;;16.40;99.90;;;;;;5050700;28;20479;-50
2021/05/25 02:56:57;;;;;;;3.40;1.87;;;16.70;99.90;;;;;;5050919;28;20431;-50
2021/05/25 02:59:23;;;;;;;2.30;1.60;;;16.00;99.90;;;;;;5050353;28;20873;-50
2021/05/25 03:01:49;;;;;;;3.30;1.67;;;16.50;99.90;;;;;;5050793;28;20438;-49
2021/05/25 03:04:15;;;;;;;3.47;1.80;;;16.40;99.90;;;;;;5050673;28;20527;-50
2021/05/25 03:06:42;;;;;;;3.90;1.70;;;16.40;99.90;;;;;;5050799;28;20560;-50
2021/05/25 03:09:08;;;;;;;2.90;1.90;;;16.40;99.90;;;;;;5050135;28;20451;-49
2021/05/25 03:11:35;;;;;;;5.37;1.87;;;16.30;99.90;;;;;;5050791;28;20518;-49
2021/05/25 03:14:01;;;;;;;6.00;2.20;;;16.40;99.90;;;;;;5050338;28;20474;-49
2021/05/25 03:16:27;;;;;;;4.53;2.40;;;16.30;99.90;;;;;;5050612;28;20943;-49
2021/05/25 03:18:53;;;;;;;9.00;2.50;;;16.20;99.90;;;;;;5049981;28;20470;-49
2021/05/25 03:21:19;;;;;;;4.07;2.27;;;16.20;99.90;;;;;;5050624;28;20423;-49
2021/05/25 03:23:47;;;;;;;6.23;2.63;;;16.30;99.90;;;;;;5050633;28;20852;-50
2021/05/25 03:26:13;;;;;;;2.97;2.00;;;15.90;99.90;;;;;;5050307;28;20599;-50
2021/05/25 03:28:39;;;;;;;10.13;2.70;;;16.00;99.90;;;;;;5050209;28;20522;-49
2021/05/25 03:31:06;;;;;;;6.60;3.17;;;16.40;99.90;;;;;;5050691;28;20773;-50
2021/05/25 03:33:32;;;;;;;3.53;2.47;;;15.90;99.90;;;;;;5050539;28;20918;-50
2021/05/25 03:35:58;;;;;;;11.20;2.57;;;15.90;99.90;;;;;;5050357;28;20474;-50
2021/05/25 03:38:24;;;;;;;3.50;2.63;;;15.90;99.90;;;;;;5049946;28;20487;-50
2021/05/25 03:40:51;;;;;;;5.97;2.30;;;15.80;99.90;;;;;;5050663;28;20440;-50
2021/05/25 03:43:18;;;;;;;5.90;2.57;;;15.90;99.90;;;;;;5054163;28;20894;-50
2021/05/25 03:45:44;;;;;;;4.63;2.73;;;15.90;99.90;;;;;;5054158;28;20476;-49
2021/05/25 03:48:10;;;;;;;4.20;2.60;;;15.90;99.90;;;;;;5053539;28;21062;-50
2021/05/25 03:50:37;;;;;;;4.73;2.77;;;15.80;99.90;;;;;;5053900;28;20433;-49
2021/05/25 03:53:03;;;;;;;3.70;2.33;;;16.00;99.90;;;;;;5054200;28;20521;-49
2021/05/25 03:55:39;;;;;;;4.60;2.50;;;15.90;99.90;;;;;;5053543;28;20489;-49
2021/05/25 04:00:52;;;;;;;5.43;3.20;;;15.90;99.90;;;;;;5053637;28;20438;-49
2021/05/25 04:03:19;;;;;;;5.10;3.33;;;15.80;99.90;;;;;;5053443;28;21006;-49
2021/05/25 04:05:45;;;;;;;3.53;2.37;;;15.90;99.90;;;;;;5053725;28;20426;-49
2021/05/25 04:08:12;;;;;;;7.90;2.80;;;16.10;99.90;;;;;;5053074;28;20482;-49
2021/05/25 04:10:39;;;;;;;4.07;2.67;;;15.70;99.90;;;;;;5053494;28;20503;-49
2021/05/25 04:13:05;;;;;;;5.27;2.57;;;16.10;99.90;;;;;;5053923;28;20426;-49
2021/05/25 04:15:33;;;;;;;5.10;2.73;;;15.70;99.90;;;;;;5053516;28;20482;-50
2021/05/25 04:18:00;;;;;;;4.57;2.67;;;15.90;99.90;;;;;;5052687;28;20471;-50
2021/05/25 04:20:26;;;;;;;7.90;2.90;;;15.50;99.90;;;;;;5052935;28;20493;-49
2021/05/25 04:22:52;;;;;;;4.97;3.10;;;15.70;99.90;;;;;;5052990;28;20509;-50
2021/05/25 04:25:19;;;;;;;5.23;2.43;;;15.90;99.90;;;;;;5053203;28;20435;-49
2021/05/25 04:27:45;;;;;;;4.87;2.40;;;16.20;99.90;;;;;;5052941;28;20601;-50
2021/05/25 04:30:12;;;;;;;2.73;1.97;;;16.00;99.90;;;;;;5052626;28;20441;-50
2021/05/25 04:32:39;;;;;;;5.10;2.33;;;16.00;99.90;;;;;;5052853;28;20431;-49
2021/05/25 04:35:07;;;;;;;9.03;2.70;;;15.80;99.90;;;;;;5052905;28;20515;-50
2021/05/25 04:37:33;;;;;;;2.43;2.23;;;15.80;99.90;;;;;;5053075;28;20462;-50
2021/05/25 04:39:59;;;;;;;3.00;2.20;;;15.90;99.90;;;;;;5052481;28;20441;-49
2021/05/25 04:42:25;;;;;;;3.87;2.40;;;15.80;99.90;;;;;;5052761;28;20473;-49
2021/05/25 04:44:51;;;;;;;3.57;2.50;;;15.80;99.90;;;;;;5034963;28;20511;-50
2021/05/25 04:47:17;;;;;;;4.47;2.90;;;15.90;99.90;;;;;;5052568;28;20431;-49
2021/05/25 04:49:44;;;;;;;3.50;2.20;;;15.30;99.90;;;;;;5052349;28;20441;-49
2021/05/25 04:52:11;;;;;;;4.07;2.63;;;15.90;99.90;;;;;;5052445;28;20775;-49
2021/05/25 04:54:37;;;;;;;5.53;2.27;;;15.70;99.90;;;;;;5051841;28;20543;-50
2021/05/25 04:57:03;;;;;;;7.97;2.70;;;16.00;99.90;;;;;;5052351;28;20423;-50
2021/05/25 04:59:29;;;;;;;4.93;2.80;;;15.70;99.90;;;;;;5051935;28;20450;-50
2021/05/25 05:01:55;;;;;;;4.50;2.50;;;15.80;99.90;;;;;;5052605;28;20561;-50
2021/05/25 05:04:21;;;;;;;4.23;1.87;;;16.00;99.90;;;;;;5052415;28;20439;-50
2021/05/25 05:06:48;;;;;;;3.20;1.83;;;16.10;99.90;;;;;;5052472;28;20526;-50
2021/05/25 05:09:15;;;;;;;3.10;2.00;;;16.00;99.90;;;;;;5051429;28;20986;-49
2021/05/25 05:11:41;;;;;;;5.23;3.00;;;16.10;99.90;;;;;;5051877;28;20913;-50
2021/05/25 05:14:07;;;;;;;2.57;2.07;;;16.10;99.90;;;;;;5052478;28;20482;-49
2021/05/25 05:16:33;;;;;;;5.53;2.43;;;16.50;99.90;;;;;;5051904;28;20491;-50
2021/05/25 05:18:59;;;;;;;4.73;1.70;;;16.00;99.90;;;;;;5051708;28;20470;-49
2021/05/25 05:21:26;;;;;;;6.40;2.60;;;16.20;99.90;;;;;;5052491;28;20465;-49
2021/05/25 05:23:54;;;;;;;4.17;2.00;;;16.30;99.90;;;;;;5052406;28;20950;-50
2021/05/25 05:26:20;;;;;;;2.93;2.00;;;16.50;99.90;;;;;;5033663;28;20458;-49
2021/05/25 05:28:47;;;;;;;4.60;2.20;;;16.30;99.90;;;;;;5051366;28;20667;-49
2021/05/25 05:31:13;;;;;;;6.17;2.47;;;16.40;99.90;;;;;;5051835;28;20434;-49
2021/05/25 05:33:39;;;;;;;3.80;2.10;;;16.30;99.90;;;;;;5051457;28;20556;-49
2021/05/25 05:36:06;;;;;;;4.63;2.20;;;16.40;99.90;;;;;;5033045;28;20477;-49
2021/05/25 05:38:33;;;;;;;3.53;1.80;;;16.30;99.90;;;;;;5051180;28;20915;-49
2021/05/25 05:41:05;;;;;;;7.63;2.20;;;16.10;99.90;;;;;;5051311;28;20880;-49
2021/05/25 05:43:32;;;;;;;2.90;2.20;;;16.30;99.90;;;;;;5050936;28;20445;-49
2021/05/25 05:45:59;;;;;;;3.93;2.00;;;16.10;99.90;;;;;;5051163;28;20424;-49
2021/05/25 05:48:26;;;;;;;5.13;2.40;;;16.00;99.90;;;;;;5050664;28;21017;-49
2021/05/25 05:50:53;;;;;;;4.07;2.50;;;16.10;99.90;;;;;;5051250;28;20431;-49
2021/05/25 05:53:19;;;;;;;6.57;2.60;;;15.90;99.90;;;;;;5051027;28;20441;-49
2021/05/25 05:55:46;;;;;;;5.10;3.50;;;16.20;99.90;;;;;;5051097;28;20689;-49
2021/05/25 05:58:13;;;;;;;4.40;3.53;;;16.10;99.90;;;;;;5050125;28;20458;-49
2021/05/25 06:00:41;;;;;;;5.40;3.73;;;15.90;99.90;;;;;;5051092;28;20451;-49
2021/05/25 06:03:08;;;;;;;4.67;3.30;;;16.10;99.90;;;;;;5051325;28;20495;-49
2021/05/25 06:05:35;;;;;;;3.80;2.87;;;15.80;99.90;;;;;;5050147;28;20434;-49
2021/05/25 06:08:01;;;;;;;6.20;2.83;;;16.30;99.90;;;;;;5050500;28;20450;-49
2021/05/25 06:10:29;;;;;;;6.30;3.40;;;15.80;99.90;;;;;;5050792;28;20762;-49
2021/05/25 06:12:56;;;;;;;4.67;2.50;;;16.10;99.90;;;;;;5050606;28;20429;-49
2021/05/25 06:15:23;;;;;;;2.97;2.03;;;16.00;99.90;;;;;;5032954;28;20513;-51
2021/05/25 06:17:49;;;;;;;3.00;2.30;;;16.20;99.90;;;;;;5050520;28;20470;-49
2021/05/25 06:20:16;;;;;;;5.23;1.70;;;15.80;99.90;;;;;;5050177;28;20529;-50
2021/05/25 06:22:42;;;;;;;3.57;1.90;;;16.00;99.90;;;;;;5050399;28;20427;-50
2021/05/25 06:25:09;;;;;;;3.03;2.03;;;16.10;99.90;;;;;;5050560;28;20435;-50
2021/05/25 06:27:37;;;;;;;2.50;2.00;;;16.00;99.90;;;;;;5050821;28;20460;-50
2021/05/25 06:30:05;;;;;;;3.87;1.80;;;16.00;99.90;;;;;;5050291;28;20462;-50
2021/05/25 06:32:32;;;;;;;4.00;2.40;;;15.90;99.90;;;;;;5050231;28;20800;-49
2021/05/25 06:34:58;;;;;;;4.70;2.33;;;16.00;99.90;;;;;;5050563;28;20562;-49
2021/05/25 06:37:25;;;;;;;2.47;1.60;;;16.00;99.80;;;;;;5050343;28;20803;-50
2021/05/25 06:39:51;;;;;;;4.43;1.83;;;15.80;99.90;;;;;;5050254;28;20442;-50
2021/05/25 06:42:17;;;;;;;3.20;2.23;;;16.10;99.90;;;;;;5050221;28;20983;-49
2021/05/25 06:44:43;;;;;;;6.10;2.10;;;16.10;99.90;;;;;;5050571;28;20875;-49
2021/05/25 06:47:09;;;;;;;4.70;2.23;;;15.70;99.80;;;;;;5050407;28;20442;-49
2021/05/25 06:49:36;;;;;;;4.10;1.77;;;16.00;99.90;;;;;;5050095;28;20513;-49
2021/05/25 06:52:03;;;;;;;2.60;1.93;;;16.10;99.90;;;;;;5049982;28;20485;-49
2021/05/25 06:54:29;;;;;;;4.03;2.00;;;16.10;99.80;;;;;;5050164;28;20505;-49
2021/05/25 06:56:56;;;;;;;4.50;2.50;;;16.30;99.30;;;;;;5050289;28;20483;-49
2021/05/25 06:59:22;;;;;;;2.87;1.70;;;15.90;98.60;;;;;;5049202;28;20454;-49
2021/05/25 07:01:48;;;;;;;2.83;2.00;;;15.60;98.40;;;;;;5050274;28;20522;-49
2021/05/25 07:04:14;;;;;;;3.10;1.40;;;16.00;98.40;;;;;;5050288;28;20442;-49
2021/05/25 07:06:41;;;;;;;4.20;1.60;;;16.20;98.40;;;;;;5050223;28;20439;-49
2021/05/25 07:09:07;;;;;;;2.63;1.73;;;16.00;97.90;;;;;;5050045;28;20459;-49
2021/05/25 07:11:33;;;;;;;4.17;1.87;;;15.80;97.60;;;;;;5049789;28;20432;-49
2021/05/25 07:14:00;;;;;;;3.53;1.60;;;15.90;97.30;;;;;;5050366;28;20533;-49
2021/05/25 07:16:26;;;;;;;3.80;1.70;;;15.90;97.10;;;;;;5051338;28;20427;-48
2021/05/25 07:18:52;;;;;;;4.13;1.50;;;16.30;97.00;;;;;;5053913;28;20478;-49
2021/05/25 07:21:18;;;;;;;3.17;1.80;;;16.30;96.60;;;;;;5054271;28;20430;-49
2021/05/25 07:23:46;;;;;;;4.07;1.63;;;16.60;96.30;;;;;;5035708;28;20785;-49
2021/05/25 07:26:12;;;;;;;3.23;1.30;;;16.70;96.00;;;;;;5053992;28;20852;-49
2021/05/25 07:28:38;;;;;;;2.50;1.50;;;16.60;95.50;;;;;;5053633;28;20452;-49
2021/05/25 07:31:04;;;;;;;2.40;1.70;;;16.40;94.80;;;;;;5053947;28;20442;-49
2021/05/25 07:33:30;;;;;;;3.97;1.20;;;16.90;94.60;;;;;;5053490;28;20930;-49
2021/05/25 07:35:56;;;;;;;3.70;1.40;;;16.30;94.20;;;;;;5053533;28;20474;-49
2021/05/25 07:38:23;;;;;;;2.43;1.67;;;16.80;94.20;;;;;;5053290;28;20450;-49
2021/05/25 07:40:50;;;;;;;5.50;1.43;;;16.90;93.70;;;;;;5053067;28;20528;-48
2021/05/25 07:43:16;;;;;;;3.27;1.43;;;16.70;93.30;;;;;;5053288;28;20523;-49
2021/05/25 07:45:43;;;;;;;2.80;1.47;;;16.20;92.70;;;;;;5053687;28;20437;-49
2021/05/25 07:48:09;;;;;;;2.63;1.40;;;16.70;92.80;;;;;;5053571;28;20451;-49
2021/05/25 07:50:35;;;;;;;5.60;2.80;;;16.50;92.10;;;;;;5053193;28;20437;-49
2021/05/25 07:53:02;;;;;;;5.33;2.07;;;16.50;91.60;;;;;;5053509;28;20525;-49
2021/05/25 07:55:30;;;;;;;4.20;1.33;;;16.40;91.40;;;;;;5053752;28;20478;-49
2021/05/25 07:57:58;;;;;;;3.10;1.67;;;16.60;91.70;;;;;;5053328;28;20520;-49
2021/05/25 08:00:26;;;;;;;4.87;1.60;;;16.50;91.60;;;;;;5053190;28;20502;-49
2021/05/25 08:02:54;;;;;;;4.47;1.57;;;16.30;91.10;;;;;;5053204;28;20433;-49
2021/05/25 08:05:21;;;;;;;5.30;1.70;;;16.30;91.20;;;;;;5053413;28;20576;-49
2021/05/25 08:07:48;;;;;;;4.70;1.83;;;16.60;91.40;;;;;;5053179;28;20457;-49
2021/05/25 08:10:15;;;;;;;1.60;1.10;;;16.60;91.20;;;;;;5053081;28;20434;-49
2021/05/25 08:12:42;;;;;;;4.23;1.30;;;16.60;90.70;;;;;;5052798;28;21009;-50
2021/05/25 08:15:11;;;;;;;4.03;1.33;;;16.70;90.60;;;;;;5053155;28;20479;-49
2021/05/25 08:17:49;;;;;;;2.27;1.40;;;16.40;90.10;;;;;;5053137;28;20438;-49
2021/05/25 08:20:16;;;;;;;1.77;1.07;;;16.60;90.10;;;;;;5053070;28;20792;-49
2021/05/25 08:22:43;;;;;;;3.53;1.10;;;16.80;89.40;;;;;;5053049;28;20439;-49
2021/05/25 08:25:11;;;;;;;3.80;1.53;;;16.90;89.20;;;;;;5052799;28;20435;-49
2021/05/25 08:27:37;;;;;;;3.20;1.40;;;16.90;88.60;;;;;;5052145;28;20470;-49
2021/05/25 08:30:05;;;;;;;3.90;1.87;;;17.20;88.80;;;;;;5034288;28;20447;-50
2021/05/25 08:32:32;;;;;;;7.27;1.50;;;17.30;88.20;;;;;;5052762;28;20434;-50
2021/05/25 08:34:59;;;;;;;4.47;1.50;;;17.20;87.40;;;;;;5053423;28;20829;-49
2021/05/25 08:37:25;;;;;;;3.57;1.20;;;17.40;86.00;;;;;;5052237;28;20440;-49
2021/05/25 08:39:51;;;;;;;2.87;1.20;;;17.40;85.80;;;;;;5052574;28;20435;-49
2021/05/25 08:42:17;;;;;;;2.40;1.20;;;17.50;85.60;;;;;;5052431;28;20534;-49
2021/05/25 08:44:43;;;;;;;6.93;1.50;;;17.10;85.10;;;;;;5052684;28;20426;-49
2021/05/25 08:47:11;;;;;;;3.20;1.70;;;16.60;84.00;;;;;;5052216;28;20430;-49
2021/05/25 08:49:40;;;;;;;1.50;1.20;;;16.80;85.30;;;;;;5051565;28;20493;-48
2021/05/25 08:52:08;;;;;;;3.03;1.20;;;17.10;85.40;;;;;;5051981;28;20883;-48
2021/05/25 08:54:34;;;;;;;4.60;1.33;;;17.20;85.20;;;;;;5052028;28;20483;-48
2021/05/25 08:57:01;;;;;;;4.50;2.47;;;16.90;83.30;;;;;;5051532;28;20442;-49
2021/05/25 08:59:27;;;;;;;3.00;1.60;;;17.10;83.70;;;;;;5033734;28;20478;-48
2021/05/25 09:01:53;;;;;;;2.80;1.43;;;17.40;84.10;;;;;;5052305;28;20427;-49
2021/05/25 09:04:19;;;;;;;6.30;1.30;;;17.50;84.00;;;;;;5052451;28;20822;-49
2021/05/25 09:06:50;;;;;;;2.80;1.30;;;17.80;82.40;;;;;;5051809;28;20437;-50
2021/05/25 09:09:17;;;;;;;2.03;1.10;;;17.30;80.70;;;;;;5051492;28;20467;-49
2021/05/25 09:11:57;;;;;;;2.40;1.63;;;17.40;81.20;;;;;;5051822;28;20427;-49
2021/05/25 09:14:23;;;;;;;2.70;1.23;;;17.20;80.60;;;;;;5051931;28;20453;-47
2021/05/25 09:16:49;;;;;;;3.10;1.43;;;17.60;80.90;;;;;;5034420;28;20481;-49
2021/05/25 09:19:16;;;;;;;3.97;1.23;;;17.70;80.30;;;;;;5051032;28;20784;-49
2021/05/25 09:21:42;;;;;;;1.90;1.40;;;17.50;79.20;;;;;;5051902;28;20527;-49
2021/05/25 09:24:09;;;;;;;1.70;0.90;;;17.90;80.30;;;;;;5051827;28;20466;-49
2021/05/25 09:26:39;;;;;;;2.93;1.60;;;17.80;78.50;;;;;;5051370;28;20534;-49
2021/05/25 09:29:07;;;;;;;3.30;1.40;;;18.00;78.50;;;;;;5051322;28;20489;-48
2021/05/25 09:31:37;;;;;;;2.50;1.57;;;18.60;78.70;;;;;;5054988;28;20467;-50
2021/05/25 09:34:07;;;;;;;5.53;1.10;;;18.20;77.00;;;;;;5051461;28;20458;-50
2021/05/25 09:36:56;;;;;;;2.37;1.40;;;18.30;75.40;;;;;;5051545;28;20561;-50
2021/05/25 09:39:23;;;;;;;2.33;1.10;;;18.20;74.80;;;;;;5051120;28;20461;-50
2021/05/25 09:41:56;;;;;;;2.40;1.13;;;18.40;74.60;;;;;;5051775;28;21055;-51
2021/05/25 09:44:22;;;;;;;1.50;0.97;;;18.20;74.00;;;;;;5033650;28;20868;-50
2021/05/25 09:46:49;;;;;;;3.40;1.27;;;18.40;73.70;;;;;;5033599;28;20483;-50
2021/05/25 09:49:15;;;;;;;2.40;1.10;;;18.40;73.80;;;;;;5050774;28;20491;-50
2021/05/25 09:51:42;;;;;;;4.53;1.57;;;18.20;73.40;;;;;;5051253;28;20429;-50
2021/05/25 09:54:19;;;;;;;2.07;1.00;;;18.30;73.00;;;;;;5051032;28;20808;-50
2021/05/25 09:56:56;;;;;;;2.73;1.20;;;18.30;71.40;;;;;;5050880;28;20894;-51
2021/05/25 09:59:30;;;;;;;1.87;1.40;;;18.10;71.00;;;;;;5050838;28;20526;-51
2021/05/25 10:01:56;;;;;;;1.83;1.27;;;18.60;72.40;;;;;;5032885;28;20797;-50
2021/05/25 10:04:23;;;;;;;3.07;1.07;;;18.60;72.20;;;;;;5051131;28;20447;-50
2021/05/25 10:06:50;;;;;;;2.40;1.30;;;18.40;71.00;;;;;;5050575;28;20445;-51
2021/05/25 10:09:19;;;;;;;3.20;1.30;;;18.90;71.70;;;;;;5049971;28;20848;-50
2021/05/25 10:11:48;;;;;;;2.03;1.10;;;18.40;70.30;;;;;;5050648;28;20582;-50
2021/05/25 10:14:15;;;;;;;4.80;1.53;;;18.40;70.60;;;;;;5050354;28;20468;-50
2021/05/25 10:16:43;;;;;;;3.90;2.43;;;18.20;70.20;;;;;;5050117;28;20448;-50
2021/05/25 10:19:27;;;;;;;2.67;1.70;;;18.20;69.40;;;;;;5048509;28;20477;-50
2021/05/25 10:21:54;;;;;;;5.47;2.07;;;18.00;69.00;;;;;;5049210;28;20455;-50
2021/05/25 10:24:20;;;;;;;2.77;1.10;;;18.10;71.20;;;;;;5049760;28;20435;-50
2021/05/25 10:26:47;;;;;;;2.93;1.00;;;17.50;73.20;;;;;;5049196;28;20474;-50
2021/05/25 10:29:15;;;;;;;4.73;1.20;;;17.50;75.70;;;;;;5048906;28;20835;-50
2021/05/25 10:31:43;;;;;;;1.17;0.77;;;17.30;78.90;;;;;;5049282;28;20424;-50
2021/05/25 10:34:17;;;;;;;3.90;1.10;;;16.60;80.90;;;;;;5049542;28;20470;-50
2021/05/25 10:36:45;;;;;;;3.00;1.03;;;16.70;83.40;;;;;;5049669;28;20437;-50
2021/05/25 10:39:35;;;;;;;5.23;2.13;;;16.10;84.30;;;;;;5048925;28;20463;-49
2021/05/25 10:42:32;;;;;;;4.30;1.10;;;16.40;87.80;;;;;;5049185;28;20489;-49
2021/05/25 10:44:59;;;;;;;3.33;1.00;;;16.00;89.50;;;;;;5049488;28;20434;-49
2021/05/25 10:47:29;;;;;;;4.20;1.93;;;16.10;89.50;;;;;;5049319;28;20501;-50
2021/05/25 10:49:57;;;;;;;3.70;1.23;;;16.00;88.90;;;;;;5049226;28;20814;-50
2021/05/25 10:52:24;;;;;;;2.87;1.57;;;16.00;88.40;;;;;;5051542;28;20462;-50
2021/05/25 10:54:56;;;;;;;2.77;1.13;;;16.40;88.90;;;;;;5052636;28;20562;-50
2021/05/25 10:57:47;;;;;;;5.63;2.30;;;16.00;90.00;;;;;;5052593;28;20431;-49
2021/05/25 11:00:19;;;;;;;2.07;1.27;;;16.00;91.00;;;;;;5052698;28;20915;-50
2021/05/25 11:02:47;;;;;;;1.73;1.00;;;16.00;91.90;;;;;;5052967;28;20426;-50
2021/05/25 11:05:46;;;;;;;3.83;2.17;;;15.80;92.10;;;;;;5052586;28;20523;-50
2021/05/25 11:08:41;;;;;;;2.60;1.40;;;16.30;92.20;;;;;;5051849;28;20447;-49
2021/05/25 11:11:14;;;;;;;5.80;2.63;;;16.10;92.10;;;;;;5052232;28;20438;-50
2021/05/25 11:13:49;;;;;;;2.80;1.60;;;16.50;92.30;;;;;;5052358;28;20483;-49
2021/05/25 11:16:17;;;;;;;3.07;1.87;;;16.30;92.60;;;;;;5052401;28;20518;-49
2021/05/25 11:18:47;;;;;;;6.05;1.80;;;16.40;93.20;;;;;;5018319;28;994828;-50
2021/05/25 11:22:03;;;;;;;1.70;1.30;;;16.40;92.90;;;;;;5054234;28;20210;-49
2021/05/25 11:24:32;;;;;;;5.30;2.00;;;16.50;92.60;;;;;;5053511;28;20912;-49
2021/05/25 11:27:00;;;;;;;2.23;1.00;;;16.40;92.40;;;;;;5053788;28;20430;-50
2021/05/25 11:29:30;;;;;;;4.47;2.30;;;16.50;92.80;;;;;;5053432;28;20497;-50
2021/05/25 11:31:59;;;;;;;2.50;1.43;;;16.70;93.60;;;;;;5053853;28;20474;-49
2021/05/25 11:34:27;;;;;;;2.37;1.63;;;16.30;93.60;;;;;;5035318;28;20454;-49
2021/05/25 11:36:58;;;;;;;4.73;2.20;;;16.80;94.80;;;;;;5053675;28;20453;-50
2021/05/25 11:39:25;;;;;;;3.93;2.40;;;16.60;94.80;;;;;;5053385;28;20466;-49
2021/05/25 11:41:51;;;;;;;3.10;2.23;;;16.60;94.70;;;;;;5053933;28;20525;-49
2021/05/25 11:44:20;;;;;;;8.63;2.23;;;16.50;94.20;;;;;;5053299;28;20470;-49
2021/05/25 11:46:50;;;;;;;5.57;3.23;;;16.40;94.90;;;;;;5053890;28;20435;-50
2021/05/25 11:49:17;;;;;;;4.33;1.90;;;16.30;95.90;;;;;;5052936;28;20983;-50
2021/05/25 11:51:44;;;;;;;5.30;3.00;;;16.10;96.00;;;;;;5052939;28;20456;-50
2021/05/25 11:54:15;;;;;;;4.60;2.40;;;16.30;96.30;;;;;;5034630;28;20549;-50
2021/05/25 11:56:48;;;;;;;5.43;1.90;;;16.40;96.90;;;;;;5035027;28;21074;-50
2021/05/25 11:59:17;;;;;;;5.10;2.37;;;16.60;97.00;;;;;;5053101;28;20447;-49
2021/05/25 12:01:45;;;;;;;3.40;1.50;;;16.90;96.80;;;;;;5053275;28;20818;-50
2021/05/25 12:04:13;;;;;;;3.90;1.60;;;16.90;96.50;;;;;;5051918;28;20517;-49
2021/05/25 12:06:50;;;;;;;2.13;1.67;;;16.90;96.40;;;;;;5053222;28;20478;-50
2021/05/25 12:09:18;;;;;;;3.40;1.30;;;17.20;96.10;;;;;;5052770;28;20541;-52
2021/05/25 12:11:46;;;;;;;3.20;1.60;;;16.60;96.40;;;;;;5052775;28;20441;-50
2021/05/25 12:14:14;;;;;;;2.70;1.83;;;16.80;97.00;;;;;;5052825;28;20445;-50
2021/05/25 12:16:40;;;;;;;3.20;2.20;;;17.20;97.50;;;;;;5052923;28;20815;-50
2021/05/25 12:19:07;;;;;;;3.20;1.40;;;17.60;97.40;;;;;;5051845;28;20535;-49
2021/05/25 12:21:35;;;;;;;2.47;1.20;;;17.70;96.60;;;;;;5052859;28;20483;-51
2021/05/25 12:24:02;;;;;;;4.77;1.70;;;17.90;95.60;;;;;;5034701;28;20557;-50
2021/05/25 12:26:28;;;;;;;3.50;2.40;;;17.80;95.10;;;;;;5052282;28;20438;-50
2021/05/25 12:28:56;;;;;;;2.03;1.33;;;17.50;95.20;;;;;;5034624;28;20603;-50
2021/05/25 12:31:28;;;;;;;4.30;1.80;;;17.90;94.90;;;;;;5034464;28;20973;-51
2021/05/25 12:33:54;;;;;;;1.60;1.10;;;17.80;95.20;;;;;;5052285;28;20490;-51
2021/05/25 12:36:24;;;;;;;1.80;1.00;;;17.50;94.60;;;;;;5034430;28;20930;-55
2021/05/25 12:38:55;;;;;;;4.13;1.50;;;17.70;93.30;;;;;;5052354;28;20535;-49
2021/05/25 12:41:21;;;;;;;3.17;1.50;;;17.80;92.20;;;;;;5052997;28;20440;-50
2021/05/25 12:43:48;;;;;;;2.00;1.20;;;17.50;91.10;;;;;;5052685;28;20580;-51
2021/05/25 12:46:14;;;;;;;3.70;1.53;;;17.80;90.10;;;;;;5051968;28;20484;-50
2021/05/25 12:48:42;;;;;;;2.23;1.17;;;17.70;86.20;;;;;;5051781;28;20456;-51
2021/05/25 12:51:10;;;;;;;2.83;1.23;;;18.00;83.30;;;;;;5052022;28;20432;-51